sensor_id;sensor_type;location;lat;lon;timestamp;temperature;humidity
76168;DHT22;64927;48.214;16.378;2024-01-25T00:00:32;12.40;53.40
76168;DHT22;64927;48.214;16.378;2024-01-25T00:02:58;12.40;53.60
76168;DHT22;64927;48.214;16.378;2024-01-25T00:05:23;12.50;53.50
76168;DHT22;64927;48.214;16.378;2024-01-25T00:07:49;12.50;53.40
76168;DHT22;64927;48.214;16.378;2024-01-25T00:10:17;12.50;53.20
76168;DHT22;64927;48.214;16.378;2024-01-25T00:12:43;12.50;53.10
76168;DHT22;64927;48.214;16.378;2024-01-25T00:15:09;12.50;53.40
76168;DHT22;64927;48.214;16.378;2024-01-25T00:17:36;12.40;53.10
76168;DHT22;64927;48.214;16.378;2024-01-25T00:20:02;12.50;52.90
76168;DHT22;64927;48.214;16.378;2024-01-25T00:22:28;12.50;53.10
76168;DHT22;64927;48.214;16.378;2024-01-25T00:24:54;12.40;53.10
76168;DHT22;64927;48.214;16.378;2024-01-25T00:27:22;12.40;53.20
76168;DHT22;64927;48.214;16.378;2024-01-25T00:29:49;12.40;53.20
76168;DHT22;64927;48.214;16.378;2024-01-25T00:32:17;12.40;53.10
76168;DHT22;64927;48.214;16.378;2024-01-25T00:34:45;12.40;53.10
76168;DHT22;64927;48.214;16.378;2024-01-25T00:37:11;12.40;53.30
76168;DHT22;64927;48.214;16.378;2024-01-25T00:39:37;12.40;53.40
76168;DHT22;64927;48.214;16.378;2024-01-25T00:42:04;12.30;53.40
76168;DHT22;64927;48.214;16.378;2024-01-25T00:44:31;12.30;53.50
76168;DHT22;64927;48.214;16.378;2024-01-25T00:46:57;12.30;53.40
76168;DHT22;64927;48.214;16.378;2024-01-25T00:49:23;12.40;53.40
76168;DHT22;64927;48.214;16.378;2024-01-25T00:51:58;12.30;53.80
76168;DHT22;64927;48.214;16.378;2024-01-25T00:54:24;12.30;53.80
76168;DHT22;64927;48.214;16.378;2024-01-25T00:56:50;12.20;54.00
76168;DHT22;64927;48.214;16.378;2024-01-25T00:59:18;12.20;54.00
76168;DHT22;64927;48.214;16.378;2024-01-25T01:01:46;12.30;54.20
76168;DHT22;64927;48.214;16.378;2024-01-25T01:04:12;12.30;54.00
76168;DHT22;64927;48.214;16.378;2024-01-25T01:06:38;12.30;54.00
76168;DHT22;64927;48.214;16.378;2024-01-25T01:09:04;12.20;53.90
76168;DHT22;64927;48.214;16.378;2024-01-25T01:11:32;12.20;54.00
76168;DHT22;64927;48.214;16.378;2024-01-25T01:13:58;12.20;54.10
76168;DHT22;64927;48.214;16.378;2024-01-25T01:16:24;12.20;54.10
76168;DHT22;64927;48.214;16.378;2024-01-25T01:18:52;12.10;54.80
76168;DHT22;64927;48.214;16.378;2024-01-25T01:21:17;12.10;53.60
76168;DHT22;64927;48.214;16.378;2024-01-25T01:23:46;12.20;53.60
76168;DHT22;64927;48.214;16.378;2024-01-25T01:26:12;12.10;53.80
76168;DHT22;64927;48.214;16.378;2024-01-25T01:28:37;12.10;53.30
76168;DHT22;64927;48.214;16.378;2024-01-25T01:31:03;12.10;53.20
76168;DHT22;64927;48.214;16.378;2024-01-25T01:33:29;12.10;53.10
76168;DHT22;64927;48.214;16.378;2024-01-25T01:35:54;12.00;53.70
76168;DHT22;64927;48.214;16.378;2024-01-25T01:38:20;12.00;53.60
76168;DHT22;64927;48.214;16.378;2024-01-25T01:40:45;12.00;53.80
76168;DHT22;64927;48.214;16.378;2024-01-25T01:43:21;11.90;53.70
76168;DHT22;64927;48.214;16.378;2024-01-25T01:45:49;11.90;53.50
76168;DHT22;64927;48.214;16.378;2024-01-25T01:48:18;12.00;53.30
76168;DHT22;64927;48.214;16.378;2024-01-25T01:50:44;11.90;53.50
76168;DHT22;64927;48.214;16.378;2024-01-25T01:53:10;11.90;53.50
76168;DHT22;64927;48.214;16.378;2024-01-25T01:55:39;11.90;53.50
76168;DHT22;64927;48.214;16.378;2024-01-25T01:58:06;11.80;53.50
76168;DHT22;64927;48.214;16.378;2024-01-25T02:00:33;11.90;53.70
76168;DHT22;64927;48.214;16.378;2024-01-25T02:02:59;11.90;53.60
76168;DHT22;64927;48.214;16.378;2024-01-25T02:05:25;11.90;53.90
76168;DHT22;64927;48.214;16.378;2024-01-25T02:07:51;11.80;53.50
76168;DHT22;64927;48.214;16.378;2024-01-25T02:10:20;11.90;53.50
76168;DHT22;64927;48.214;16.378;2024-01-25T02:12:46;11.90;53.50
76168;DHT22;64927;48.214;16.378;2024-01-25T02:15:11;11.80;53.40
76168;DHT22;64927;48.214;16.378;2024-01-25T02:17:37;11.90;53.50
76168;DHT22;64927;48.214;16.378;2024-01-25T02:20:03;11.90;53.50
76168;DHT22;64927;48.214;16.378;2024-01-25T02:22:32;11.90;53.20
76168;DHT22;64927;48.214;16.378;2024-01-25T02:25:02;11.80;53.40
76168;DHT22;64927;48.214;16.378;2024-01-25T02:27:30;11.80;53.50
76168;DHT22;64927;48.214;16.378;2024-01-25T02:29:56;11.90;53.40
76168;DHT22;64927;48.214;16.378;2024-01-25T02:32:23;11.90;53.60
76168;DHT22;64927;48.214;16.378;2024-01-25T02:34:49;11.90;53.80
76168;DHT22;64927;48.214;16.378;2024-01-25T02:37:15;11.90;53.60
76168;DHT22;64927;48.214;16.378;2024-01-25T02:39:40;11.80;53.70
76168;DHT22;64927;48.214;16.378;2024-01-25T02:42:06;11.90;53.60
76168;DHT22;64927;48.214;16.378;2024-01-25T02:44:31;11.90;53.70
76168;DHT22;64927;48.214;16.378;2024-01-25T02:46:59;11.90;53.90
76168;DHT22;64927;48.214;16.378;2024-01-25T02:49:28;11.80;53.90
76168;DHT22;64927;48.214;16.378;2024-01-25T02:51:54;11.90;54.00
76168;DHT22;64927;48.214;16.378;2024-01-25T02:54:20;11.80;53.90
76168;DHT22;64927;48.214;16.378;2024-01-25T02:56:45;11.80;54.00
76168;DHT22;64927;48.214;16.378;2024-01-25T02:59:11;11.80;54.00
76168;DHT22;64927;48.214;16.378;2024-01-25T03:01:44;11.70;54.20
76168;DHT22;64927;48.214;16.378;2024-01-25T03:04:10;11.80;54.00
76168;DHT22;64927;48.214;16.378;2024-01-25T03:06:36;11.80;53.20
76168;DHT22;64927;48.214;16.378;2024-01-25T03:09:02;11.80;53.10
76168;DHT22;64927;48.214;16.378;2024-01-25T03:11:31;11.80;53.10
76168;DHT22;64927;48.214;16.378;2024-01-25T03:13:56;11.80;53.10
76168;DHT22;64927;48.214;16.378;2024-01-25T03:16:22;11.80;53.20
76168;DHT22;64927;48.214;16.378;2024-01-25T03:18:48;11.70;52.70
76168;DHT22;64927;48.214;16.378;2024-01-25T03:21:14;11.80;52.80
76168;DHT22;64927;48.214;16.378;2024-01-25T03:23:42;11.70;52.70
76168;DHT22;64927;48.214;16.378;2024-01-25T03:26:07;11.70;53.00
76168;DHT22;64927;48.214;16.378;2024-01-25T03:28:36;11.80;52.60
76168;DHT22;64927;48.214;16.378;2024-01-25T03:31:02;11.70;52.20
76168;DHT22;64927;48.214;16.378;2024-01-25T03:33:28;11.70;52.70
76168;DHT22;64927;48.214;16.378;2024-01-25T03:35:54;11.80;52.40
76168;DHT22;64927;48.214;16.378;2024-01-25T03:38:20;11.80;52.60
76168;DHT22;64927;48.214;16.378;2024-01-25T03:40:45;11.80;52.80
76168;DHT22;64927;48.214;16.378;2024-01-25T03:43:11;11.70;53.10
76168;DHT22;64927;48.214;16.378;2024-01-25T03:45:37;11.70;53.20
76168;DHT22;64927;48.214;16.378;2024-01-25T03:48:03;11.70;53.20
76168;DHT22;64927;48.214;16.378;2024-01-25T03:50:28;11.70;53.60
76168;DHT22;64927;48.214;16.378;2024-01-25T03:52:54;11.60;53.90
76168;DHT22;64927;48.214;16.378;2024-01-25T03:55:20;11.70;54.30
76168;DHT22;64927;48.214;16.378;2024-01-25T03:57:45;11.70;54.20
76168;DHT22;64927;48.214;16.378;2024-01-25T04:00:12;11.70;54.10
76168;DHT22;64927;48.214;16.378;2024-01-25T04:02:37;11.60;54.60
76168;DHT22;64927;48.214;16.378;2024-01-25T04:05:04;11.70;54.60
76168;DHT22;64927;48.214;16.378;2024-01-25T04:07:30;11.60;54.70
76168;DHT22;64927;48.214;16.378;2024-01-25T04:09:56;11.60;54.90
76168;DHT22;64927;48.214;16.378;2024-01-25T04:12:21;11.50;55.10
76168;DHT22;64927;48.214;16.378;2024-01-25T04:14:50;11.60;55.20
76168;DHT22;64927;48.214;16.378;2024-01-25T04:17:20;11.60;55.00
76168;DHT22;64927;48.214;16.378;2024-01-25T04:19:46;11.60;55.30
76168;DHT22;64927;48.214;16.378;2024-01-25T04:22:14;11.50;55.60
76168;DHT22;64927;48.214;16.378;2024-01-25T04:24:39;11.60;55.30
76168;DHT22;64927;48.214;16.378;2024-01-25T04:27:05;11.60;55.40
76168;DHT22;64927;48.214;16.378;2024-01-25T04:29:31;11.50;55.60
76168;DHT22;64927;48.214;16.378;2024-01-25T04:31:57;11.50;55.40
76168;DHT22;64927;48.214;16.378;2024-01-25T04:34:22;11.60;55.10
76168;DHT22;64927;48.214;16.378;2024-01-25T04:36:48;11.60;55.20
76168;DHT22;64927;48.214;16.378;2024-01-25T04:39:13;11.50;55.30
76168;DHT22;64927;48.214;16.378;2024-01-25T04:41:39;11.50;55.50
76168;DHT22;64927;48.214;16.378;2024-01-25T04:44:07;11.50;55.20
76168;DHT22;64927;48.214;16.378;2024-01-25T04:46:33;11.50;55.40
76168;DHT22;64927;48.214;16.378;2024-01-25T04:49:02;11.50;55.50
76168;DHT22;64927;48.214;16.378;2024-01-25T04:51:28;11.50;55.20
76168;DHT22;64927;48.214;16.378;2024-01-25T04:53:53;11.50;55.50
76168;DHT22;64927;48.214;16.378;2024-01-25T04:56:19;11.50;55.60
76168;DHT22;64927;48.214;16.378;2024-01-25T04:58:47;11.50;55.60
76168;DHT22;64927;48.214;16.378;2024-01-25T05:01:15;11.40;55.60
76168;DHT22;64927;48.214;16.378;2024-01-25T05:03:41;11.40;55.50
76168;DHT22;64927;48.214;16.378;2024-01-25T05:06:09;11.40;55.70
76168;DHT22;64927;48.214;16.378;2024-01-25T05:08:34;11.40;55.30
76168;DHT22;64927;48.214;16.378;2024-01-25T05:11:02;11.40;55.40
76168;DHT22;64927;48.214;16.378;2024-01-25T05:13:28;11.40;55.20
76168;DHT22;64927;48.214;16.378;2024-01-25T05:15:54;11.40;55.40
76168;DHT22;64927;48.214;16.378;2024-01-25T05:18:20;11.40;55.50
76168;DHT22;64927;48.214;16.378;2024-01-25T05:20:45;11.40;55.60
76168;DHT22;64927;48.214;16.378;2024-01-25T05:23:13;11.40;55.40
76168;DHT22;64927;48.214;16.378;2024-01-25T05:25:39;11.40;55.50
76168;DHT22;64927;48.214;16.378;2024-01-25T05:28:05;11.50;55.60
76168;DHT22;64927;48.214;16.378;2024-01-25T05:30:30;11.50;55.50
76168;DHT22;64927;48.214;16.378;2024-01-25T05:32:58;11.40;55.60
76168;DHT22;64927;48.214;16.378;2024-01-25T05:35:24;11.50;55.50
76168;DHT22;64927;48.214;16.378;2024-01-25T05:37:49;11.40;55.40
76168;DHT22;64927;48.214;16.378;2024-01-25T05:40:15;11.40;55.50
76168;DHT22;64927;48.214;16.378;2024-01-25T05:42:41;11.40;55.60
76168;DHT22;64927;48.214;16.378;2024-01-25T05:45:06;11.40;55.50
76168;DHT22;64927;48.214;16.378;2024-01-25T05:47:33;11.50;55.60
76168;DHT22;64927;48.214;16.378;2024-01-25T05:49:59;11.40;55.40
76168;DHT22;64927;48.214;16.378;2024-01-25T05:52:26;11.40;55.40
76168;DHT22;64927;48.214;16.378;2024-01-25T05:54:54;11.40;55.60
76168;DHT22;64927;48.214;16.378;2024-01-25T05:57:19;11.40;55.50
76168;DHT22;64927;48.214;16.378;2024-01-25T05:59:46;11.30;55.60
76168;DHT22;64927;48.214;16.378;2024-01-25T06:02:11;11.30;55.50
76168;DHT22;64927;48.214;16.378;2024-01-25T06:04:37;11.30;55.50
76168;DHT22;64927;48.214;16.378;2024-01-25T06:07:03;11.30;55.50
76168;DHT22;64927;48.214;16.378;2024-01-25T06:09:29;11.30;55.50
76168;DHT22;64927;48.214;16.378;2024-01-25T06:11:54;11.30;55.50
76168;DHT22;64927;48.214;16.378;2024-01-25T06:14:20;11.40;55.50
76168;DHT22;64927;48.214;16.378;2024-01-25T06:16:46;11.30;55.50
76168;DHT22;64927;48.214;16.378;2024-01-25T06:19:12;11.20;55.50
76168;DHT22;64927;48.214;16.378;2024-01-25T06:21:37;11.20;55.70
76168;DHT22;64927;48.214;16.378;2024-01-25T06:24:04;11.20;55.90
76168;DHT22;64927;48.214;16.378;2024-01-25T06:26:32;11.00;56.00
76168;DHT22;64927;48.214;16.378;2024-01-25T06:29:01;11.10;56.00
76168;DHT22;64927;48.214;16.378;2024-01-25T06:31:28;11.10;55.90
76168;DHT22;64927;48.214;16.378;2024-01-25T06:33:54;11.10;55.80
76168;DHT22;64927;48.214;16.378;2024-01-25T06:36:20;11.10;55.80
76168;DHT22;64927;48.214;16.378;2024-01-25T06:38:45;11.00;55.70
76168;DHT22;64927;48.214;16.378;2024-01-25T06:41:11;11.10;56.00
76168;DHT22;64927;48.214;16.378;2024-01-25T06:43:37;10.90;56.20
76168;DHT22;64927;48.214;16.378;2024-01-25T06:46:03;11.00;56.40
76168;DHT22;64927;48.214;16.378;2024-01-25T06:48:30;10.90;56.30
76168;DHT22;64927;48.214;16.378;2024-01-25T06:50:56;10.90;56.20
76168;DHT22;64927;48.214;16.378;2024-01-25T06:53:22;10.90;56.20
76168;DHT22;64927;48.214;16.378;2024-01-25T06:55:50;11.00;56.20
76168;DHT22;64927;48.214;16.378;2024-01-25T06:58:15;11.00;56.40
76168;DHT22;64927;48.214;16.378;2024-01-25T07:00:41;11.00;56.50
76168;DHT22;64927;48.214;16.378;2024-01-25T07:03:08;11.00;56.50
76168;DHT22;64927;48.214;16.378;2024-01-25T07:05:36;10.90;56.50
76168;DHT22;64927;48.214;16.378;2024-01-25T07:08:02;11.00;56.60
76168;DHT22;64927;48.214;16.378;2024-01-25T07:10:28;11.00;56.50
76168;DHT22;64927;48.214;16.378;2024-01-25T07:12:58;11.00;56.40
76168;DHT22;64927;48.214;16.378;2024-01-25T07:15:26;11.00;56.30
76168;DHT22;64927;48.214;16.378;2024-01-25T07:17:52;11.00;56.20
76168;DHT22;64927;48.214;16.378;2024-01-25T07:20:17;11.10;56.20
76168;DHT22;64927;48.214;16.378;2024-01-25T07:22:43;11.00;56.50
76168;DHT22;64927;48.214;16.378;2024-01-25T07:25:09;11.10;56.40
76168;DHT22;64927;48.214;16.378;2024-01-25T07:27:34;11.00;56.40
76168;DHT22;64927;48.214;16.378;2024-01-25T07:30:02;11.00;56.50
76168;DHT22;64927;48.214;16.378;2024-01-25T07:32:28;11.00;56.60
76168;DHT22;64927;48.214;16.378;2024-01-25T07:34:54;11.00;56.40
76168;DHT22;64927;48.214;16.378;2024-01-25T07:37:20;11.00;56.40
76168;DHT22;64927;48.214;16.378;2024-01-25T07:39:45;11.10;56.20
76168;DHT22;64927;48.214;16.378;2024-01-25T07:42:13;11.10;55.80
76168;DHT22;64927;48.214;16.378;2024-01-25T07:44:39;11.10;55.60
76168;DHT22;64927;48.214;16.378;2024-01-25T07:47:06;11.10;55.50
76168;DHT22;64927;48.214;16.378;2024-01-25T07:49:32;11.20;55.10
76168;DHT22;64927;48.214;16.378;2024-01-25T07:52:00;11.30;54.30
76168;DHT22;64927;48.214;16.378;2024-01-25T07:54:26;11.30;53.90
76168;DHT22;64927;48.214;16.378;2024-01-25T07:56:51;11.40;53.70
76168;DHT22;64927;48.214;16.378;2024-01-25T07:59:17;11.40;53.70
76168;DHT22;64927;48.214;16.378;2024-01-25T08:01:42;11.30;53.50
76168;DHT22;64927;48.214;16.378;2024-01-25T08:04:10;11.30;54.10
76168;DHT22;64927;48.214;16.378;2024-01-25T08:06:36;11.40;53.90
76168;DHT22;64927;48.214;16.378;2024-01-25T08:09:02;11.40;53.60
76168;DHT22;64927;48.214;16.378;2024-01-25T08:11:28;11.40;52.40
76168;DHT22;64927;48.214;16.378;2024-01-25T08:13:53;11.40;52.30
76168;DHT22;64927;48.214;16.378;2024-01-25T08:16:22;11.50;51.50
76168;DHT22;64927;48.214;16.378;2024-01-25T08:18:48;11.60;50.40
76168;DHT22;64927;48.214;16.378;2024-01-25T08:21:14;11.60;50.30
76168;DHT22;64927;48.214;16.378;2024-01-25T08:23:40;11.60;49.70
76168;DHT22;64927;48.214;16.378;2024-01-25T08:26:06;11.60;48.80
76168;DHT22;64927;48.214;16.378;2024-01-25T08:28:35;11.70;48.40
76168;DHT22;64927;48.214;16.378;2024-01-25T08:31:04;11.70;48.10
76168;DHT22;64927;48.214;16.378;2024-01-25T08:33:32;11.80;47.70
76168;DHT22;64927;48.214;16.378;2024-01-25T08:35:57;11.80;47.10
76168;DHT22;64927;48.214;16.378;2024-01-25T08:38:23;11.80;47.00
76168;DHT22;64927;48.214;16.378;2024-01-25T08:40:49;11.80;46.70
76168;DHT22;64927;48.214;16.378;2024-01-25T08:43:16;11.80;46.30
76168;DHT22;64927;48.214;16.378;2024-01-25T08:45:43;11.90;45.80
76168;DHT22;64927;48.214;16.378;2024-01-25T08:48:09;11.80;45.80
76168;DHT22;64927;48.214;16.378;2024-01-25T08:50:35;11.70;45.60
76168;DHT22;64927;48.214;16.378;2024-01-25T08:53:01;11.70;45.80
76168;DHT22;64927;48.214;16.378;2024-01-25T08:55:27;11.80;45.30
76168;DHT22;64927;48.214;16.378;2024-01-25T08:57:55;11.80;45.50
76168;DHT22;64927;48.214;16.378;2024-01-25T09:00:20;11.70;45.10
76168;DHT22;64927;48.214;16.378;2024-01-25T09:02:46;11.70;45.60
76168;DHT22;64927;48.214;16.378;2024-01-25T09:05:12;11.80;45.90
76168;DHT22;64927;48.214;16.378;2024-01-25T09:07:38;11.80;46.10
76168;DHT22;64927;48.214;16.378;2024-01-25T09:10:04;11.70;46.30
76168;DHT22;64927;48.214;16.378;2024-01-25T09:12:30;11.70;46.70
76168;DHT22;64927;48.214;16.378;2024-01-25T09:14:56;11.70;46.90
76168;DHT22;64927;48.214;16.378;2024-01-25T09:17:24;11.70;46.70
76168;DHT22;64927;48.214;16.378;2024-01-25T09:19:50;11.70;47.30
76168;DHT22;64927;48.214;16.378;2024-01-25T09:22:17;11.70;47.30
76168;DHT22;64927;48.214;16.378;2024-01-25T09:24:45;11.90;47.50
76168;DHT22;64927;48.214;16.378;2024-01-25T09:27:10;12.00;47.80
76168;DHT22;64927;48.214;16.378;2024-01-25T09:29:39;12.10;48.30
76168;DHT22;64927;48.214;16.378;2024-01-25T09:32:06;12.10;48.40
76168;DHT22;64927;48.214;16.378;2024-01-25T09:34:32;12.00;48.80
76168;DHT22;64927;48.214;16.378;2024-01-25T09:36:58;11.90;49.20
76168;DHT22;64927;48.214;16.378;2024-01-25T09:39:26;11.90;49.30
76168;DHT22;64927;48.214;16.378;2024-01-25T09:41:51;11.90;49.20
76168;DHT22;64927;48.214;16.378;2024-01-25T09:44:19;12.00;49.30
76168;DHT22;64927;48.214;16.378;2024-01-25T09:46:48;12.10;48.20
76168;DHT22;64927;48.214;16.378;2024-01-25T09:49:13;12.10;48.00
76168;DHT22;64927;48.214;16.378;2024-01-25T09:51:43;12.10;48.40
76168;DHT22;64927;48.214;16.378;2024-01-25T09:54:08;12.20;48.60
76168;DHT22;64927;48.214;16.378;2024-01-25T09:56:36;12.20;48.10
76168;DHT22;64927;48.214;16.378;2024-01-25T09:59:08;12.20;46.80
76168;DHT22;64927;48.214;16.378;2024-01-25T10:01:34;12.30;46.90
76168;DHT22;64927;48.214;16.378;2024-01-25T10:04:00;12.20;46.20
76168;DHT22;64927;48.214;16.378;2024-01-25T10:06:26;12.20;46.20
76168;DHT22;64927;48.214;16.378;2024-01-25T10:08:53;12.30;45.10
76168;DHT22;64927;48.214;16.378;2024-01-25T10:11:21;12.20;44.00
76168;DHT22;64927;48.214;16.378;2024-01-25T10:13:48;12.20;43.30
76168;DHT22;64927;48.214;16.378;2024-01-25T10:16:19;12.20;43.00
76168;DHT22;64927;48.214;16.378;2024-01-25T10:18:48;12.20;43.20
76168;DHT22;64927;48.214;16.378;2024-01-25T10:21:15;12.30;42.70
76168;DHT22;64927;48.214;16.378;2024-01-25T10:23:43;12.40;42.30
76168;DHT22;64927;48.214;16.378;2024-01-25T10:26:11;12.50;41.90
76168;DHT22;64927;48.214;16.378;2024-01-25T10:28:39;12.40;41.20
76168;DHT22;64927;48.214;16.378;2024-01-25T10:31:05;12.40;40.90
76168;DHT22;64927;48.214;16.378;2024-01-25T10:33:34;12.40;41.90
76168;DHT22;64927;48.214;16.378;2024-01-25T10:36:01;12.50;42.20
76168;DHT22;64927;48.214;16.378;2024-01-25T10:38:36;12.60;43.10
76168;DHT22;64927;48.214;16.378;2024-01-25T10:41:04;12.60;43.80
76168;DHT22;64927;48.214;16.378;2024-01-25T10:43:30;12.60;44.70
76168;DHT22;64927;48.214;16.378;2024-01-25T10:45:56;12.70;45.10
76168;DHT22;64927;48.214;16.378;2024-01-25T10:48:24;12.80;45.90
76168;DHT22;64927;48.214;16.378;2024-01-25T10:50:54;12.80;46.20
76168;DHT22;64927;48.214;16.378;2024-01-25T10:53:21;12.80;46.90
76168;DHT22;64927;48.214;16.378;2024-01-25T10:55:47;12.80;47.40
76168;DHT22;64927;48.214;16.378;2024-01-25T10:58:13;12.60;48.40
76168;DHT22;64927;48.214;16.378;2024-01-25T11:00:40;12.60;48.70
76168;DHT22;64927;48.214;16.378;2024-01-25T11:03:08;12.50;49.30
76168;DHT22;64927;48.214;16.378;2024-01-25T11:05:35;12.50;49.40
76168;DHT22;64927;48.214;16.378;2024-01-25T11:08:03;12.40;49.80
76168;DHT22;64927;48.214;16.378;2024-01-25T11:10:35;12.40;50.30
76168;DHT22;64927;48.214;16.378;2024-01-25T11:13:01;12.40;50.50
76168;DHT22;64927;48.214;16.378;2024-01-25T11:15:31;12.40;50.40
76168;DHT22;64927;48.214;16.378;2024-01-25T11:18:01;12.40;50.90
76168;DHT22;64927;48.214;16.378;2024-01-25T11:20:28;12.40;50.50
76168;DHT22;64927;48.214;16.378;2024-01-25T11:22:58;12.40;51.00
76168;DHT22;64927;48.214;16.378;2024-01-25T11:25:36;12.30;50.50
76168;DHT22;64927;48.214;16.378;2024-01-25T11:28:04;12.40;50.70
76168;DHT22;64927;48.214;16.378;2024-01-25T11:30:34;12.30;50.80
76168;DHT22;64927;48.214;16.378;2024-01-25T11:33:07;12.40;50.80
76168;DHT22;64927;48.214;16.378;2024-01-25T11:35:33;12.30;50.30
76168;DHT22;64927;48.214;16.378;2024-01-25T11:38:01;12.30;50.10
76168;DHT22;64927;48.214;16.378;2024-01-25T11:40:27;12.40;49.80
76168;DHT22;64927;48.214;16.378;2024-01-25T11:42:56;12.30;49.70
76168;DHT22;64927;48.214;16.378;2024-01-25T11:45:22;12.30;49.70
76168;DHT22;64927;48.214;16.378;2024-01-25T11:47:48;12.40;50.00
76168;DHT22;64927;48.214;16.378;2024-01-25T11:50:15;12.60;49.00
76168;DHT22;64927;48.214;16.378;2024-01-25T11:52:40;12.60;48.90
76168;DHT22;64927;48.214;16.378;2024-01-25T11:55:07;12.60;48.60
76168;DHT22;64927;48.214;16.378;2024-01-25T11:57:40;12.40;47.60
76168;DHT22;64927;48.214;16.378;2024-01-25T12:00:07;12.50;47.80
76168;DHT22;64927;48.214;16.378;2024-01-25T12:02:37;12.50;47.30
76168;DHT22;64927;48.214;16.378;2024-01-25T12:05:05;12.50;47.50
76168;DHT22;64927;48.214;16.378;2024-01-25T12:07:31;12.60;47.20
76168;DHT22;64927;48.214;16.378;2024-01-25T12:10:03;12.70;47.30
76168;DHT22;64927;48.214;16.378;2024-01-25T12:12:29;12.60;47.20
76168;DHT22;64927;48.214;16.378;2024-01-25T12:14:58;12.60;47.40
76168;DHT22;64927;48.214;16.378;2024-01-25T12:17:27;12.70;47.70
76168;DHT22;64927;48.214;16.378;2024-01-25T12:19:57;12.80;47.10
76168;DHT22;64927;48.214;16.378;2024-01-25T12:22:24;12.80;46.80
76168;DHT22;64927;48.214;16.378;2024-01-25T12:24:57;12.80;47.20
76168;DHT22;64927;48.214;16.378;2024-01-25T12:27:24;12.80;46.90
76168;DHT22;64927;48.214;16.378;2024-01-25T12:29:51;12.90;46.80
76168;DHT22;64927;48.214;16.378;2024-01-25T12:32:21;12.90;46.60
76168;DHT22;64927;48.214;16.378;2024-01-25T12:35:00;12.90;46.10
76168;DHT22;64927;48.214;16.378;2024-01-25T12:37:29;13.00;46.00
76168;DHT22;64927;48.214;16.378;2024-01-25T12:39:54;12.90;45.60
76168;DHT22;64927;48.214;16.378;2024-01-25T12:42:21;12.90;45.40
76168;DHT22;64927;48.214;16.378;2024-01-25T12:44:53;12.80;45.50
76168;DHT22;64927;48.214;16.378;2024-01-25T12:47:22;12.70;44.90
76168;DHT22;64927;48.214;16.378;2024-01-25T12:49:48;12.60;45.20
76168;DHT22;64927;48.214;16.378;2024-01-25T12:52:15;12.70;44.90
76168;DHT22;64927;48.214;16.378;2024-01-25T12:54:41;12.70;44.80
76168;DHT22;64927;48.214;16.378;2024-01-25T12:57:09;12.80;44.70
76168;DHT22;64927;48.214;16.378;2024-01-25T12:59:36;12.90;45.10
76168;DHT22;64927;48.214;16.378;2024-01-25T13:02:02;12.90;44.20
76168;DHT22;64927;48.214;16.378;2024-01-25T13:04:28;12.90;44.50
76168;DHT22;64927;48.214;16.378;2024-01-25T13:06:56;12.90;44.10
76168;DHT22;64927;48.214;16.378;2024-01-25T13:09:25;12.90;44.70
76168;DHT22;64927;48.214;16.378;2024-01-25T13:11:51;12.90;44.40
76168;DHT22;64927;48.214;16.378;2024-01-25T13:14:19;12.80;44.50
76168;DHT22;64927;48.214;16.378;2024-01-25T13:16:45;12.80;44.80
76168;DHT22;64927;48.214;16.378;2024-01-25T13:19:11;12.80;44.70
76168;DHT22;64927;48.214;16.378;2024-01-25T13:21:40;12.80;45.00
76168;DHT22;64927;48.214;16.378;2024-01-25T13:24:08;12.70;45.00
76168;DHT22;64927;48.214;16.378;2024-01-25T13:26:35;12.70;45.50
76168;DHT22;64927;48.214;16.378;2024-01-25T13:29:01;12.60;45.70
76168;DHT22;64927;48.214;16.378;2024-01-25T13:31:27;12.60;46.10
76168;DHT22;64927;48.214;16.378;2024-01-25T13:33:52;12.50;46.30
76168;DHT22;64927;48.214;16.378;2024-01-25T13:36:20;12.40;46.40
76168;DHT22;64927;48.214;16.378;2024-01-25T13:38:46;12.30;46.60
76168;DHT22;64927;48.214;16.378;2024-01-25T13:41:14;12.40;46.30
76168;DHT22;64927;48.214;16.378;2024-01-25T13:43:44;12.40;46.50
76168;DHT22;64927;48.214;16.378;2024-01-25T13:46:09;12.30;46.20
76168;DHT22;64927;48.214;16.378;2024-01-25T13:48:35;12.20;46.30
76168;DHT22;64927;48.214;16.378;2024-01-25T13:51:03;12.10;46.10
76168;DHT22;64927;48.214;16.378;2024-01-25T13:53:28;12.20;46.10
76168;DHT22;64927;48.214;16.378;2024-01-25T13:55:56;12.20;45.70
76168;DHT22;64927;48.214;16.378;2024-01-25T13:58:22;12.00;46.10
76168;DHT22;64927;48.214;16.378;2024-01-25T14:00:47;12.00;46.20
76168;DHT22;64927;48.214;16.378;2024-01-25T14:03:15;12.00;45.50
76168;DHT22;64927;48.214;16.378;2024-01-25T14:05:43;12.00;45.70
76168;DHT22;64927;48.214;16.378;2024-01-25T14:08:09;12.00;45.50
76168;DHT22;64927;48.214;16.378;2024-01-25T14:10:34;11.90;45.60
76168;DHT22;64927;48.214;16.378;2024-01-25T14:13:00;11.90;45.60
76168;DHT22;64927;48.214;16.378;2024-01-25T14:15:26;11.90;45.50
76168;DHT22;64927;48.214;16.378;2024-01-25T14:17:52;11.90;45.60
76168;DHT22;64927;48.214;16.378;2024-01-25T14:20:17;11.80;46.40
76168;DHT22;64927;48.214;16.378;2024-01-25T14:22:43;11.90;45.50
76168;DHT22;64927;48.214;16.378;2024-01-25T14:25:09;11.90;45.10
76168;DHT22;64927;48.214;16.378;2024-01-25T14:27:35;11.90;45.20
76168;DHT22;64927;48.214;16.378;2024-01-25T14:30:01;11.90;45.10
76168;DHT22;64927;48.214;16.378;2024-01-25T14:32:29;11.90;45.40
76168;DHT22;64927;48.214;16.378;2024-01-25T14:34:54;11.80;45.30
76168;DHT22;64927;48.214;16.378;2024-01-25T14:37:25;11.80;45.20
76168;DHT22;64927;48.214;16.378;2024-01-25T14:39:50;11.80;45.00
76168;DHT22;64927;48.214;16.378;2024-01-25T14:42:16;11.90;45.20
76168;DHT22;64927;48.214;16.378;2024-01-25T14:44:44;11.80;45.00
76168;DHT22;64927;48.214;16.378;2024-01-25T14:47:14;11.70;45.30
76168;DHT22;64927;48.214;16.378;2024-01-25T14:49:46;11.70;45.40
76168;DHT22;64927;48.214;16.378;2024-01-25T14:52:13;11.60;45.20
76168;DHT22;64927;48.214;16.378;2024-01-25T14:54:40;11.70;45.50
76168;DHT22;64927;48.214;16.378;2024-01-25T14:57:11;11.70;45.50
76168;DHT22;64927;48.214;16.378;2024-01-25T14:59:37;11.60;45.40
76168;DHT22;64927;48.214;16.378;2024-01-25T15:02:03;11.60;45.80
76168;DHT22;64927;48.214;16.378;2024-01-25T15:04:28;11.60;45.90
76168;DHT22;64927;48.214;16.378;2024-01-25T15:06:56;11.60;45.40
76168;DHT22;64927;48.214;16.378;2024-01-25T15:09:21;11.60;45.20
76168;DHT22;64927;48.214;16.378;2024-01-25T15:11:47;11.50;45.50